createdAt,value
2018-05-24T00:01:18.025Z,17.90
2018-05-24T00:03:45.480Z,18.00
2018-05-24T00:06:12.941Z,17.90
2018-05-24T00:08:40.403Z,18.00
2018-05-24T00:11:07.882Z,17.90
2018-05-24T00:13:35.341Z,17.80
2018-05-24T00:16:02.807Z,17.70
2018-05-24T00:18:30.261Z,17.60
2018-05-24T00:20:57.726Z,17.70
2018-05-24T00:23:25.181Z,17.80
2018-05-24T00:25:52.642Z,17.80
2018-05-24T00:28:20.076Z,17.90
2018-05-24T00:30:48.302Z,17.80
2018-05-24T00:33:15.738Z,17.80
2018-05-24T00:35:43.206Z,17.70
2018-05-24T00:38:10.658Z,17.70
2018-05-24T00:40:38.117Z,17.60
2018-05-24T00:43:05.567Z,17.60
2018-05-24T00:45:33.779Z,17.80
2018-05-24T00:48:01.235Z,17.80
2018-05-24T00:50:28.695Z,17.80
2018-05-24T00:52:56.153Z,17.80
2018-05-24T00:55:35.336Z,17.80
2018-05-24T00:58:02.782Z,17.80
2018-05-24T01:00:30.235Z,17.80
2018-05-24T01:02:57.684Z,17.80
2018-05-24T01:05:25.144Z,17.70
2018-05-24T01:07:52.596Z,17.60
2018-05-24T01:10:20.064Z,17.60
2018-05-24T01:12:47.525Z,17.60
2018-05-24T01:15:14.968Z,17.60
2018-05-24T01:17:42.426Z,17.60
2018-05-24T01:20:10.641Z,17.60
2018-05-24T01:22:38.112Z,17.60
2018-05-24T01:25:05.557Z,17.60
2018-05-24T01:27:33.014Z,17.60
2018-05-24T01:30:00.475Z,17.60
2018-05-24T01:32:27.929Z,17.60
2018-05-24T01:34:55.373Z,17.60
2018-05-24T01:37:35.505Z,17.60
2018-05-24T01:40:02.969Z,17.50
2018-05-24T01:42:30.417Z,17.50
2018-05-24T01:44:57.876Z,17.50
2018-05-24T01:47:25.336Z,17.50
2018-05-24T01:49:52.778Z,17.50
2018-05-24T01:52:20.241Z,17.40
2018-05-24T01:54:47.700Z,17.40
2018-05-24T01:57:15.161Z,17.40
2018-05-24T01:59:42.614Z,17.30
2018-05-24T02:02:10.074Z,17.40
2018-05-24T02:04:37.534Z,17.30
2018-05-24T02:07:05.001Z,17.40
2018-05-24T02:09:32.463Z,17.30
2018-05-24T02:11:59.917Z,17.30
2018-05-24T02:14:27.366Z,17.30
2018-05-24T02:16:55.583Z,17.30
2018-05-24T02:19:23.045Z,17.30
2018-05-24T02:21:50.495Z,17.20
2018-05-24T02:24:17.947Z,17.20
2018-05-24T02:26:45.389Z,17.10
2018-05-24T02:29:13.631Z,16.80
2018-05-24T02:31:41.070Z,16.80
2018-05-24T02:34:08.543Z,16.80
2018-05-24T02:36:36.001Z,16.80
2018-05-24T02:39:03.485Z,16.70
2018-05-24T02:41:30.938Z,16.80
2018-05-24T02:43:58.389Z,16.90
2018-05-24T02:46:25.831Z,16.90
2018-05-24T02:48:53.290Z,16.90
2018-05-24T02:51:20.751Z,16.90
2018-05-24T02:53:48.217Z,16.80
2018-05-24T02:56:15.741Z,16.80
2018-05-24T02:58:43.116Z,16.80
2018-05-24T03:01:11.340Z,16.80
2018-05-24T03:03:38.801Z,16.80
2018-05-24T03:06:06.255Z,16.80
2018-05-24T03:08:33.709Z,16.80
2018-05-24T03:11:01.163Z,16.80
2018-05-24T03:13:28.601Z,16.80
2018-05-24T03:15:56.824Z,16.80
2018-05-24T03:18:24.275Z,16.80
2018-05-24T03:20:51.748Z,16.80
2018-05-24T03:23:19.202Z,16.70
2018-05-24T03:25:46.664Z,16.70
2018-05-24T03:28:14.125Z,16.70
2018-05-24T03:30:41.588Z,16.60
2018-05-24T03:33:09.038Z,16.50
2018-05-24T03:35:36.508Z,16.40
2018-05-24T03:38:03.958Z,16.30
2018-05-24T03:40:31.427Z,16.30
2018-05-24T03:42:58.863Z,16.40
2018-05-24T03:45:27.089Z,16.60
2018-05-24T03:47:54.549Z,16.60
2018-05-24T03:50:22.012Z,16.60
2018-05-24T03:52:49.470Z,16.60
2018-05-24T03:55:16.932Z,16.70
2018-05-24T03:57:44.464Z,16.70
2018-05-24T04:00:23.758Z,16.60
2018-05-24T04:03:03.144Z,16.60
2018-05-24T04:05:30.610Z,16.70
2018-05-24T04:07:58.066Z,16.60
2018-05-24T04:10:25.519Z,16.50
2018-05-24T04:12:57.628Z,16.50
2018-05-24T04:15:25.092Z,16.40
2018-05-24T04:17:52.547Z,16.50
2018-05-24T04:20:19.999Z,16.60
2018-05-24T04:22:47.444Z,16.60
2018-05-24T04:25:15.722Z,16.50
2018-05-24T04:27:44.421Z,16.60
2018-05-24T04:30:12.652Z,16.60
2018-05-24T04:32:40.121Z,16.60
2018-05-24T04:35:07.617Z,16.60
2018-05-24T04:37:35.045Z,16.60
2018-05-24T04:40:02.553Z,16.60
2018-05-24T04:42:30.114Z,16.60
2018-05-24T04:44:57.577Z,16.60
2018-05-24T04:47:25.037Z,16.60
2018-05-24T04:49:52.490Z,16.60
2018-05-24T04:52:21.367Z,16.60
2018-05-24T04:54:48.829Z,16.60
2018-05-24T04:57:16.280Z,16.70
2018-05-24T04:59:43.732Z,16.60
2018-05-24T05:02:11.212Z,16.60
2018-05-24T05:04:38.675Z,16.60
2018-05-24T05:07:06.137Z,16.60
2018-05-24T05:09:33.600Z,16.70
2018-05-24T05:12:01.064Z,16.70
2018-05-24T05:14:28.524Z,16.70
2018-05-24T05:16:56.005Z,16.80
2018-05-24T05:19:24.298Z,16.80
2018-05-24T05:21:51.687Z,16.80
2018-05-24T05:24:20.045Z,16.80
2018-05-24T05:26:47.509Z,16.80
2018-05-24T05:29:14.968Z,16.70
2018-05-24T05:31:42.434Z,16.70
2018-05-24T05:34:09.885Z,16.70
2018-05-24T05:36:38.102Z,16.80
2018-05-24T05:39:05.556Z,16.70
2018-05-24T05:41:33.014Z,16.80
2018-05-24T05:44:00.482Z,16.90
2018-05-24T05:46:27.944Z,16.80
2018-05-24T05:48:55.405Z,16.90
2018-05-24T05:51:22.868Z,17.10
2018-05-24T05:53:50.328Z,17.10
2018-05-24T05:56:17.774Z,17.10
2018-05-24T05:58:45.996Z,17.10
2018-05-24T06:01:13.432Z,17.10
2018-05-24T06:03:40.900Z,17.10
2018-05-24T06:06:08.354Z,17.20
2018-05-24T06:08:35.824Z,17.10
2018-05-24T06:11:03.291Z,17.10
2018-05-24T06:13:30.749Z,17.20
2018-05-24T06:15:58.196Z,17.10
2018-05-24T06:18:25.652Z,17.20
2018-05-24T06:20:53.932Z,17.20
2018-05-24T06:23:21.408Z,17.30
2018-05-24T06:25:48.849Z,17.30
2018-05-24T06:28:17.078Z,17.40
2018-05-24T06:30:44.542Z,17.40
2018-05-24T06:33:12.005Z,17.40
2018-05-24T06:35:39.464Z,17.40
2018-05-24T06:38:06.917Z,17.50
2018-05-24T06:40:34.439Z,17.50
2018-05-24T06:43:01.840Z,17.60
2018-05-24T06:45:29.293Z,17.50
2018-05-24T06:47:56.752Z,17.70
2018-05-24T06:50:24.205Z,17.70
2018-05-24T06:52:51.684Z,17.70
2018-05-24T06:55:19.144Z,17.80
2018-05-24T06:57:46.605Z,17.80
2018-05-24T07:00:14.064Z,17.80
2018-05-24T07:02:41.516Z,17.90
2018-05-24T07:05:08.969Z,18.00
2018-05-24T07:07:37.194Z,18.00
2018-05-24T07:10:04.656Z,18.00
2018-05-24T07:12:32.127Z,18.10
2018-05-24T07:15:00.355Z,18.10
2018-05-24T07:17:28.581Z,18.20
2018-05-24T07:19:56.039Z,18.20
2018-05-24T07:22:23.493Z,18.30
2018-05-24T07:24:50.951Z,18.40
2018-05-24T07:27:18.404Z,18.40
2018-05-24T07:29:45.874Z,18.40
2018-05-24T07:32:13.316Z,18.40
2018-05-24T07:34:40.796Z,18.50
2018-05-24T07:37:08.236Z,18.50
2018-05-24T07:39:35.734Z,18.50
2018-05-24T07:42:03.150Z,18.60
2018-05-24T07:44:31.368Z,18.60
2018-05-24T07:46:58.817Z,18.50
2018-05-24T07:49:26.283Z,18.60
2018-05-24T07:51:53.743Z,18.60
2018-05-24T07:54:21.186Z,18.60
2018-05-24T07:56:49.431Z,18.60
2018-05-24T07:59:16.877Z,18.60
2018-05-24T08:01:44.376Z,18.70
2018-05-24T08:04:11.781Z,18.70
2018-05-24T08:06:39.232Z,18.70
2018-05-24T08:09:06.697Z,18.80
2018-05-24T08:11:34.173Z,18.90
2018-05-24T08:14:01.627Z,18.90
2018-05-24T08:16:29.086Z,18.90
2018-05-24T08:18:56.545Z,19.00
2018-05-24T08:21:24.009Z,19.20
2018-05-24T08:23:51.475Z,19.30
2018-05-24T08:26:18.927Z,19.30
2018-05-24T08:28:46.368Z,19.40
2018-05-24T08:31:14.593Z,19.50
2018-05-24T08:33:42.043Z,19.50
2018-05-24T08:36:09.493Z,19.50
2018-05-24T08:38:36.949Z,19.70
2018-05-24T08:41:04.392Z,19.70
2018-05-24T08:43:32.604Z,19.90
2018-05-24T08:46:00.064Z,19.90
2018-05-24T08:48:27.515Z,20.10
2018-05-24T08:50:54.977Z,20.30
2018-05-24T08:53:22.503Z,20.20
2018-05-24T08:55:50.630Z,20.40
2018-05-24T08:58:18.088Z,20.30
2018-05-24T09:00:45.536Z,20.40
2018-05-24T09:03:13.748Z,20.40
2018-05-24T09:05:41.212Z,20.40
2018-05-24T09:08:08.662Z,20.40
2018-05-24T09:10:36.122Z,20.40
2018-05-24T09:13:03.584Z,20.50
2018-05-24T09:15:31.044Z,20.40
2018-05-24T09:17:58.494Z,20.40
2018-05-24T09:20:25.972Z,20.40
2018-05-24T09:22:53.424Z,20.50
2018-05-24T09:25:20.903Z,20.40
2018-05-24T09:27:48.413Z,20.50
2018-05-24T09:30:15.857Z,20.60
2018-05-24T09:32:43.314Z,20.50
2018-05-24T09:35:10.773Z,20.60
2018-05-24T09:37:38.230Z,20.80
2018-05-24T09:40:05.680Z,21.00
2018-05-24T09:42:33.140Z,21.10
2018-05-24T09:45:00.582Z,21.20
2018-05-24T09:47:28.042Z,21.30
2018-05-24T09:49:56.260Z,21.40
2018-05-24T09:52:23.714Z,21.40
2018-05-24T09:54:51.153Z,21.40
2018-05-24T09:57:18.615Z,21.40
2018-05-24T09:59:46.055Z,21.30
2018-05-24T10:02:14.288Z,21.60
2018-05-24T10:04:41.751Z,21.60
2018-05-24T10:07:09.194Z,21.90
2018-05-24T10:09:36.650Z,22.10
2018-05-24T10:12:04.119Z,22.10
2018-05-24T10:14:31.575Z,21.90
2018-05-24T10:16:59.048Z,21.90
2018-05-24T10:19:26.505Z,22.00
2018-05-24T10:21:53.950Z,22.20
2018-05-24T10:24:21.399Z,22.30
2018-05-24T10:26:49.620Z,22.10
2018-05-24T10:29:17.081Z,22.10
2018-05-24T10:31:44.530Z,22.50
2018-05-24T10:34:11.991Z,22.80
2018-05-24T10:36:39.443Z,22.80
2018-05-24T10:39:06.881Z,23.00
2018-05-24T10:41:35.104Z,23.10
2018-05-24T10:44:02.560Z,23.10
2018-05-24T10:46:30.022Z,23.00
2018-05-24T10:48:57.485Z,23.20
2018-05-24T10:51:24.936Z,23.50
2018-05-24T10:53:52.408Z,23.30
2018-05-24T10:56:19.858Z,23.40
2018-05-24T10:58:47.332Z,23.40
2018-05-24T11:01:14.796Z,23.70
2018-05-24T11:03:42.258Z,23.30
2018-05-24T11:08:36.404Z,23.80
2018-05-24T11:11:03.863Z,23.90
2018-05-24T11:13:31.316Z,23.60
2018-05-24T11:15:58.776Z,23.60
2018-05-24T11:18:26.244Z,23.90
2018-05-24T11:20:53.680Z,23.80
2018-05-24T11:23:21.136Z,23.60
2018-05-24T11:25:48.580Z,24.00
2018-05-24T11:28:16.806Z,24.40
2018-05-24T11:30:44.255Z,24.40
2018-05-24T11:33:11.707Z,24.40
2018-05-24T11:35:39.150Z,23.60
2018-05-24T11:38:06.608Z,23.80
2018-05-24T11:40:34.824Z,24.50
2018-05-24T11:43:02.307Z,24.50
2018-05-24T11:45:29.713Z,24.50
2018-05-24T11:47:57.164Z,24.90
2018-05-24T11:50:25.378Z,25.00
2018-05-24T11:52:52.839Z,25.00
2018-05-24T11:55:20.301Z,25.20
2018-05-24T11:57:47.737Z,25.40
2018-05-24T12:00:15.963Z,25.60
2018-05-24T12:02:43.407Z,25.60
2018-05-24T12:05:10.860Z,25.90
2018-05-24T12:07:38.316Z,25.80
2018-05-24T12:10:05.773Z,25.90
2018-05-24T12:12:33.208Z,25.80
2018-05-24T12:15:00.677Z,25.70
2018-05-24T12:17:28.896Z,25.60
2018-05-24T12:19:56.338Z,25.60
2018-05-24T12:22:23.780Z,25.60
2018-05-24T12:24:52.010Z,25.60
2018-05-24T12:27:19.453Z,25.60
2018-05-24T12:29:46.912Z,25.40
2018-05-24T12:32:14.360Z,25.20
2018-05-24T12:34:42.576Z,26.50
2018-05-24T12:37:10.014Z,26.50
2018-05-24T12:39:37.467Z,26.60
2018-05-24T12:42:05.702Z,26.70
2018-05-24T12:44:33.154Z,26.70
2018-05-24T12:47:00.685Z,25.80
2018-05-24T12:49:28.089Z,26.40
2018-05-24T12:51:55.527Z,26.20
2018-05-24T12:54:23.003Z,25.50
2018-05-24T12:56:50.448Z,25.10
2018-05-24T12:59:17.881Z,26.20
2018-05-24T13:01:46.105Z,27.10
2018-05-24T13:04:13.569Z,27.10
2018-05-24T13:06:41.006Z,27.30
2018-05-24T13:09:08.447Z,27.40
2018-05-24T13:11:36.667Z,27.30
2018-05-24T13:14:04.114Z,27.30
2018-05-24T13:16:31.573Z,27.40
2018-05-24T13:18:59.020Z,27.60
2018-05-24T13:21:26.476Z,27.60
2018-05-24T13:23:53.926Z,26.90
2018-05-24T13:26:21.372Z,27.60
2018-05-24T13:28:48.821Z,27.70
2018-05-24T13:31:16.275Z,27.10
2018-05-24T13:33:43.717Z,27.40
2018-05-24T13:36:11.183Z,27.70
2018-05-24T13:38:38.658Z,27.90
2018-05-24T13:41:06.117Z,28.10
2018-05-24T13:43:33.567Z,28.50
2018-05-24T13:46:01.023Z,28.40
2018-05-24T13:48:28.474Z,27.80
2018-05-24T13:50:55.934Z,27.30
2018-05-24T13:53:23.385Z,27.60
2018-05-24T13:55:51.612Z,27.90
2018-05-24T13:58:19.054Z,27.90
2018-05-24T14:00:46.499Z,28.20
2018-05-24T14:03:13.950Z,28.40
2018-05-24T14:05:42.186Z,28.60
2018-05-24T14:08:09.641Z,28.60
2018-05-24T14:10:37.090Z,28.70
2018-05-24T14:13:04.571Z,27.50
2018-05-24T14:15:32.027Z,27.10
2018-05-24T14:17:59.491Z,28.10
2018-05-24T14:20:27.030Z,28.50
2018-05-24T14:22:54.467Z,28.50
2018-05-24T14:25:22.674Z,28.80
2018-05-24T14:27:50.142Z,28.80
2018-05-24T14:30:17.596Z,29.00
2018-05-24T14:32:45.054Z,28.60
2018-05-24T14:35:12.506Z,28.80
2018-05-24T14:37:39.955Z,28.90
2018-05-24T14:40:08.159Z,29.30
2018-05-24T14:42:35.622Z,29.30
2018-05-24T14:45:03.143Z,28.90
2018-05-24T14:47:31.369Z,29.20
2018-05-24T14:49:58.751Z,29.20
2018-05-24T14:52:26.212Z,28.70
2018-05-24T14:54:53.651Z,27.90
2018-05-24T14:57:21.114Z,28.20
2018-05-24T14:59:48.550Z,27.70
2018-05-24T15:02:16.768Z,27.60
2018-05-24T15:04:44.225Z,27.60
2018-05-24T15:07:11.679Z,28.60
2018-05-24T15:09:39.112Z,29.10
2018-05-24T15:12:07.346Z,28.60
2018-05-24T15:14:34.784Z,28.60
2018-05-24T15:17:02.241Z,28.60
2018-05-24T15:19:29.689Z,28.90
2018-05-24T15:21:57.899Z,28.30
2018-05-24T15:24:25.352Z,28.20
2018-05-24T15:26:52.821Z,27.20
2018-05-24T15:29:20.275Z,26.00
2018-05-24T15:31:47.726Z,25.90
2018-05-24T15:34:15.176Z,25.30
2018-05-24T15:36:43.376Z,26.00
2018-05-24T15:39:10.848Z,25.90
2018-05-24T15:41:38.311Z,25.30
2018-05-24T15:44:05.775Z,24.80
2018-05-24T15:46:33.227Z,25.30
2018-05-24T15:49:00.679Z,24.70
2018-05-24T15:51:28.894Z,24.00
2018-05-24T15:53:56.360Z,24.00
2018-05-24T15:56:23.812Z,24.30
2018-05-24T15:58:51.259Z,24.40
2018-05-24T16:01:18.712Z,24.30
2018-05-24T16:03:46.172Z,24.50
2018-05-24T16:06:13.644Z,23.90
2018-05-24T16:08:41.124Z,23.80
2018-05-24T16:11:08.573Z,23.30
2018-05-24T16:13:36.034Z,23.10
2018-05-24T16:16:03.495Z,22.90
2018-05-24T16:18:30.957Z,22.80
2018-05-24T16:20:58.409Z,22.90
2018-05-24T16:23:25.880Z,22.80
2018-05-24T16:25:53.343Z,22.70
2018-05-24T16:28:20.792Z,22.60
2018-05-24T16:30:48.242Z,22.50
2018-05-24T16:33:16.452Z,22.40
2018-05-24T16:35:43.902Z,22.40
2018-05-24T16:38:11.333Z,21.90
2018-05-24T16:40:39.555Z,22.00
2018-05-24T16:43:07.004Z,21.90
2018-05-24T16:45:34.464Z,21.90
2018-05-24T16:48:01.901Z,22.00
2018-05-24T16:50:30.127Z,22.10
2018-05-24T16:52:57.581Z,22.10
2018-05-24T16:55:25.040Z,21.80
2018-05-24T16:57:52.492Z,21.70
2018-05-24T17:00:19.953Z,21.60
2018-05-24T17:02:47.401Z,21.70
2018-05-24T17:05:15.631Z,22.10
2018-05-24T17:07:43.082Z,22.10
2018-05-24T17:10:10.542Z,22.40
2018-05-24T17:12:38.036Z,22.90
2018-05-24T17:15:05.454Z,23.00
2018-05-24T17:17:32.889Z,23.30
2018-05-24T17:20:01.124Z,23.20
2018-05-24T17:22:28.576Z,23.10
2018-05-24T17:24:56.036Z,22.90
2018-05-24T17:27:23.473Z,22.90
2018-05-24T17:29:50.956Z,22.60
2018-05-24T17:32:18.385Z,22.60
2018-05-24T17:34:46.612Z,22.20
2018-05-24T17:37:14.060Z,22.20
2018-05-24T17:39:41.521Z,22.30
2018-05-24T17:42:08.985Z,22.10
2018-05-24T17:44:36.439Z,22.00
2018-05-24T17:47:03.900Z,21.90
2018-05-24T17:49:31.337Z,22.00
2018-05-24T17:51:59.566Z,21.90
2018-05-24T17:54:27.029Z,21.90
2018-05-24T17:56:54.482Z,21.90
2018-05-24T17:59:21.948Z,21.70
2018-05-24T18:01:49.415Z,21.70
2018-05-24T18:04:16.881Z,21.60
2018-05-24T18:06:44.328Z,21.60
2018-05-24T18:09:11.779Z,21.50
2018-05-24T18:11:39.252Z,21.60
2018-05-24T18:14:06.707Z,21.30
2018-05-24T18:16:34.165Z,20.90
2018-05-24T18:19:01.629Z,21.00
2018-05-24T18:21:29.085Z,21.00
2018-05-24T18:23:56.533Z,21.00
2018-05-24T18:26:24.757Z,21.20
2018-05-24T18:28:52.210Z,21.10
2018-05-24T18:31:19.664Z,21.20
2018-05-24T18:33:47.108Z,21.10
2018-05-24T18:36:14.585Z,21.00
2018-05-24T18:38:42.068Z,20.50
2018-05-24T18:41:09.530Z,20.50
2018-05-24T18:43:36.993Z,20.30
2018-05-24T18:46:07.680Z,20.50
2018-05-24T18:48:35.895Z,20.80
2018-05-24T18:51:03.352Z,20.80
2018-05-24T18:53:30.808Z,20.60
2018-05-24T18:55:58.272Z,20.50
2018-05-24T18:58:25.733Z,20.50
2018-05-24T19:00:53.177Z,20.40
2018-05-24T19:03:21.425Z,20.20
2018-05-24T19:05:48.873Z,20.20
2018-05-24T19:08:16.333Z,20.20
2018-05-24T19:10:43.790Z,20.20
2018-05-24T19:13:11.251Z,20.10
2018-05-24T19:15:38.702Z,20.00
2018-05-24T19:18:06.177Z,20.20
2018-05-24T19:20:33.638Z,20.10
2018-05-24T19:23:01.099Z,20.20
2018-05-24T19:25:28.560Z,19.90
2018-05-24T19:27:56.014Z,19.70
2018-05-24T19:30:23.460Z,19.90
2018-05-24T19:32:50.925Z,20.00
2018-05-24T19:35:18.395Z,20.00
2018-05-24T19:37:45.872Z,19.90
2018-05-24T19:40:13.313Z,19.80
2018-05-24T19:42:40.775Z,19.70
2018-05-24T19:45:08.210Z,19.60
2018-05-24T19:47:36.429Z,19.70
2018-05-24T19:50:03.880Z,19.70
2018-05-24T19:52:31.348Z,19.90
2018-05-24T19:54:58.803Z,19.50
2018-05-24T19:57:26.267Z,19.40
2018-05-24T19:59:53.722Z,19.70
2018-05-24T20:02:21.187Z,19.90
2018-05-24T20:04:48.682Z,20.00
2018-05-24T20:07:16.145Z,19.90
2018-05-24T20:09:43.604Z,19.70
2018-05-24T20:12:11.071Z,19.80
2018-05-24T20:14:38.529Z,19.80
2018-05-24T20:17:05.977Z,19.40
2018-05-24T20:19:33.426Z,19.20
2018-05-24T20:22:00.876Z,19.20
2018-05-24T20:24:28.394Z,19.20
2018-05-24T20:26:55.840Z,19.20
2018-05-24T20:29:23.300Z,19.10
2018-05-24T20:31:50.774Z,18.90
2018-05-24T20:34:18.254Z,18.90
2018-05-24T20:36:45.704Z,19.00
2018-05-24T20:39:13.162Z,19.20
2018-05-24T20:41:40.629Z,19.20
2018-05-24T20:44:08.064Z,19.10
2018-05-24T20:46:35.522Z,19.10
2018-05-24T20:49:02.992Z,19.00
2018-05-24T20:51:30.441Z,18.90
2018-05-24T20:53:57.925Z,19.00
2018-05-24T20:56:25.395Z,19.10
2018-05-24T20:58:52.863Z,19.10
2018-05-24T21:01:20.312Z,19.00
2018-05-24T21:03:47.760Z,19.00
2018-05-24T21:06:15.225Z,19.00
2018-05-24T21:08:42.687Z,18.90
2018-05-24T21:11:10.148Z,18.90
2018-05-24T21:13:37.642Z,19.00
2018-05-24T21:16:05.064Z,19.10
2018-05-24T21:18:32.506Z,19.00
2018-05-24T21:20:59.976Z,18.80
2018-05-24T21:23:27.417Z,18.70
2018-05-24T21:25:55.652Z,18.60
2018-05-24T21:28:23.103Z,18.60
2018-05-24T21:30:50.556Z,18.70
2018-05-24T21:33:18.005Z,18.50
2018-05-24T21:35:45.447Z,18.50
2018-05-24T21:38:13.667Z,18.80
2018-05-24T21:40:41.133Z,18.80
2018-05-24T21:43:08.590Z,18.40
2018-05-24T21:45:36.088Z,18.20
2018-05-24T21:48:03.506Z,18.50
2018-05-24T21:50:30.953Z,18.70
2018-05-24T21:52:58.419Z,18.80
2018-05-24T21:55:25.948Z,18.70
2018-05-24T21:57:53.387Z,18.60
2018-05-24T22:00:20.855Z,18.50
2018-05-24T22:02:48.304Z,18.40
2018-05-24T22:07:49.636Z,18.70
2018-05-24T22:10:17.228Z,18.60
2018-05-24T22:12:44.667Z,18.30
2018-05-24T22:15:12.130Z,18.20
2018-05-24T22:17:39.580Z,18.10
2018-05-24T22:20:07.812Z,18.00
2018-05-24T22:22:35.250Z,18.00
2018-05-24T22:25:02.721Z,17.90
2018-05-24T22:27:30.167Z,17.80
2018-05-24T22:29:57.642Z,18.10
2018-05-24T22:32:25.086Z,18.30
2018-05-24T22:34:52.526Z,18.40
2018-05-24T22:37:20.753Z,17.90
2018-05-24T22:39:48.209Z,17.90
2018-05-24T22:42:15.663Z,17.80
2018-05-24T22:44:43.107Z,17.80
2018-05-24T22:47:10.574Z,17.90
2018-05-24T22:49:38.780Z,18.20
2018-05-24T22:52:06.241Z,18.20
2018-05-24T22:54:33.685Z,18.10
2018-05-24T22:57:01.199Z,17.80
2018-05-24T22:59:28.638Z,17.60
2018-05-24T23:01:56.809Z,17.70
2018-05-24T23:04:24.257Z,17.70
2018-05-24T23:06:52.573Z,17.50
2018-05-24T23:09:20.023Z,17.40
2018-05-24T23:11:47.482Z,17.50
2018-05-24T23:14:14.925Z,17.70
2018-05-24T23:16:43.144Z,17.60
2018-05-24T23:19:10.596Z,17.50
2018-05-24T23:21:38.058Z,17.60
2018-05-24T23:24:05.512Z,17.70
2018-05-24T23:26:32.969Z,17.50
2018-05-24T23:29:00.447Z,17.20
2018-05-24T23:31:27.899Z,17.10
2018-05-24T23:33:55.360Z,17.30
2018-05-24T23:36:22.802Z,17.30
2018-05-24T23:38:50.243Z,17.20
2018-05-24T23:41:17.732Z,17.00
2018-05-24T23:43:45.956Z,17.00
2018-05-24T23:46:13.384Z,17.00
2018-05-24T23:48:41.608Z,16.90
2018-05-24T23:51:09.065Z,16.90
2018-05-24T23:53:36.526Z,16.80
2018-05-24T23:56:03.968Z,16.80
2018-05-24T23:58:31.421Z,16.90
